DW5321 Paradera AW current weather conditions

sailwx.info

Wind from 064 at 11 knots gusting 20

Air temperature 27.8° C
Dewpoint 23.8° C

Last reported at 2016-Jul-01 01:31 UTC.
Time now 2016-Jul-01 02:52 UTC

Location: N 12°33' W 070°00'.
View on Google Maps.

See reports from other nearby stations

  
Tides and Currents Weather Stations Pressure Air Temp Water Temp Dewpoint Dewpoint Depression Visibility Wind Speed Wind Dir Waves Ship Positions
date/time (UTC)wind fromknots sea level pressurealtimeterstation pressurevisibilityair tempwater tempwave heightnotes
2016-Jul-01 01:31 064 11 gusting 20 27.8
2016-Jul-01 01:16 057 7 gusting 15 27.8
2016-Jul-01 01:01 089 9 gusting 20 27.8
2016-Jul-01 00:46 110 10 gusting 16 27.8
2016-Jul-01 00:31 129 9 gusting 19 27.8
2016-Jul-01 00:16 055 11 gusting 19 27.8
2016-Jul-01 00:01 114 9 gusting 19 27.8
2016-Jun-30 23:46 074 11 gusting 22 27.8
2016-Jun-30 23:31 066 9 gusting 14 27.8
2016-Jun-30 23:16 064 9 gusting 18 27.8
2016-Jun-30 23:01 065 11 gusting 21 27.8
2016-Jun-30 22:46 068 12 gusting 18 28.3
2016-Jun-30 22:31 071 10 gusting 19 28.3
2016-Jun-30 22:16 054 10 gusting 18 28.3
2016-Jun-30 22:01 120 12 gusting 19 28.3
2016-Jun-30 21:46 077 10 gusting 19 28.9
2016-Jun-30 21:31 061 12 gusting 18 28.9
2016-Jun-30 21:16 096 12 gusting 21 28.9
2016-Jun-30 21:01 038 12 gusting 19 28.9
2016-Jun-30 20:46 079 12 gusting 19 29.4
2016-Jun-30 20:31 069 10 gusting 19 29.4
2016-Jun-30 20:16 127 8 gusting 20 29.4
2016-Jun-30 20:01 111 13 gusting 21 29.4
2016-Jun-30 19:46 092 10 gusting 22 30.6
2016-Jun-30 19:31 084 12 gusting 19 30.0
2016-Jun-30 19:16 117 13 gusting 22 30.0
2016-Jun-30 19:01 069 11 gusting 25 30.0
2016-Jun-30 18:46 105 11 gusting 19 30.0
2016-Jun-30 18:31 072 13 gusting 23 30.0
2016-Jun-30 18:16 108 12 gusting 21 30.6
2016-Jun-30 18:01 092 10 gusting 19 30.6
2016-Jun-30 17:46 124 13 gusting 25 30.6
2016-Jun-30 17:31 120 13 gusting 25 30.6
2016-Jun-30 17:16 125 14 gusting 22 30.0
2016-Jun-30 17:01 088 12 gusting 23 30.6
2016-Jun-30 16:46 092 13 gusting 26 30.0
2016-Jun-30 16:31 132 13 gusting 27 30.0
2016-Jun-30 16:16 105 15 gusting 22 30.6
2016-Jun-30 16:01 125 14 gusting 24 30.0
2016-Jun-30 15:47 131 13 gusting 24 30.0
2016-Jun-30 15:31 103 13 gusting 19 30.0
2016-Jun-30 15:16 150 13 gusting 21 29.4
2016-Jun-30 15:01 103 14 gusting 24 29.4
2016-Jun-30 14:46 169 13 gusting 24 30.0
2016-Jun-30 14:31 120 13 gusting 24 30.0
2016-Jun-30 14:16 101 11 gusting 19 30.0
2016-Jun-30 14:01 076 15 gusting 24 29.4
2016-Jun-30 13:46 110 13 gusting 21 29.4
2016-Jun-30 13:30 117 11 gusting 21 29.4
2016-Jun-30 13:15 139 14 gusting 23 28.9
2016-Jun-30 13:00 139 10 gusting 22 28.9
2016-Jun-30 12:45 105 16 gusting 26 28.9
2016-Jun-30 12:30 141 13 gusting 22 28.9
2016-Jun-30 12:15 085 11 gusting 17 28.9
2016-Jun-30 12:00 101 10 gusting 17 28.3
2016-Jun-30 11:45 099 13 gusting 17 27.8
2016-Jun-30 11:30 114 11 gusting 15 27.8
2016-Jun-30 11:15 098 12 gusting 19 27.2
2016-Jun-30 11:00 108 7 gusting 14 27.2
2016-Jun-30 10:45 112 8 gusting 13 27.2
2016-Jun-30 10:30 096 7 gusting 12 27.2
2016-Jun-30 10:15 120 11 gusting 18 27.2
2016-Jun-30 10:00 036 7 gusting 15 27.2
2016-Jun-30 09:45 115 9 gusting 16 27.2
2016-Jun-30 09:30 114 8 gusting 16 27.2
2016-Jun-30 09:15 081 8 gusting 14 27.2
2016-Jun-30 09:00 134 12 gusting 18 27.2
2016-Jun-30 08:45 109 11 gusting 19 27.2
2016-Jun-30 08:30 086 9 gusting 17 27.2
2016-Jun-30 08:15 111 10 gusting 16 27.2
2016-Jun-30 08:00 124 6 gusting 14 27.8
2016-Jun-30 07:45 104 9 gusting 17 27.2
2016-Jun-30 07:30 141 11 gusting 19 27.2
2016-Jun-30 07:15 113 9 gusting 17 27.2
2016-Jun-30 07:00 058 8 gusting 15 27.2
2016-Jun-30 06:45 079 8 gusting 15 27.2
2016-Jun-30 06:30 107 8 gusting 15 27.8
2016-Jun-30 06:15 084 12 gusting 20 27.8
2016-Jun-30 05:59 106 9 gusting 15 27.8
2016-Jun-30 05:44 120 10 gusting 19 27.8
2016-Jun-30 05:29 112 11 gusting 19 27.8
2016-Jun-30 05:14 114 10 gusting 14 27.8
2016-Jun-30 04:59 120 7 gusting 14 27.8
2016-Jun-30 04:44 112 10 gusting 15 27.8
2016-Jun-30 04:29 096 12 gusting 16 27.8
2016-Jun-30 04:15 103 10 gusting 19 27.8
2016-Jun-30 03:59 104 11 gusting 17 27.8
2016-Jun-30 03:44 098 11 gusting 19 27.8
2016-Jun-30 03:29 103 8 gusting 13 27.8
2016-Jun-30 03:14 075 10 gusting 18 27.8
2016-Jun-30 02:59 114 6 gusting 15 27.8
2016-Jun-30 02:44 100 7 gusting 15 27.8
2016-Jun-30 02:29 084 8 gusting 13 27.8
2016-Jun-30 02:14 062 6 gusting 13 27.8
2016-Jun-30 01:59 064 7 gusting 13 27.8
2016-Jun-30 01:44 061 6 gusting 15 27.8
2016-Jun-30 01:29 108 7 gusting 13 27.8
2016-Jun-30 01:14 078 8 gusting 16 27.8
2016-Jun-30 00:59 073 6 gusting 14 27.8
2016-Jun-30 00:44 110 6 gusting 13 27.8
2016-Jun-30 00:29 109 9 gusting 18 27.8
2016-Jun-30 00:14 124 6 gusting 15 28.3
2016-Jun-29 23:59 101 6 gusting 13 28.3
2016-Jun-29 23:44 096 8 gusting 14 28.3
2016-Jun-29 23:29 084 8 gusting 15 28.3
2016-Jun-29 23:14 096 7 gusting 17 28.3
2016-Jun-29 22:59 047 10 gusting 15 28.3
2016-Jun-29 22:44 071 6 gusting 13 28.9
2016-Jun-29 22:29 044 10 gusting 17 28.9
2016-Jun-29 22:14 105 11 gusting 17 29.4
2016-Jun-29 21:59 081 9 gusting 19 28.9
2016-Jun-29 21:44 074 8 gusting 17 29.4
2016-Jun-29 21:29 081 12 gusting 18 29.4
2016-Jun-29 21:14 084 8 gusting 19 29.4
2016-Jun-29 20:59 048 10 gusting 19 29.4
2016-Jun-29 20:44 075 9 gusting 19 30.0
2016-Jun-29 20:29 089 10 gusting 17 30.0
2016-Jun-29 20:14 086 12 gusting 17 30.0
2016-Jun-29 19:59 078 10 gusting 18 30.0
2016-Jun-29 19:44 094 11 gusting 19 30.6
2016-Jun-29 19:29 039 13 gusting 19 30.6
2016-Jun-29 19:14 094 10 gusting 17 30.6
2016-Jun-29 18:59 091 10 gusting 18 30.6
2016-Jun-29 18:44 083 12 gusting 18 30.6
2016-Jun-29 18:29 111 6 gusting 19 30.6
2016-Jun-29 18:14 114 14 gusting 25 30.0
2016-Jun-29 17:59 062 12 gusting 18 30.6
2016-Jun-29 17:44 047 11 gusting 19 31.1
2016-Jun-29 17:29 113 9 gusting 19 31.1
2016-Jun-29 17:13 124 11 gusting 23 30.6
2016-Jun-29 16:59 091 11 gusting 19 30.6
2016-Jun-29 16:43 082 13 gusting 21 30.6
2016-Jun-29 16:28 053 13 gusting 21 30.6
2016-Jun-29 16:14 110 14 gusting 23 30.6
2016-Jun-29 15:58 121 15 gusting 24 30.6
2016-Jun-29 15:43 120 13 gusting 22 30.6
2016-Jun-29 15:28 115 13 gusting 24 30.6
2016-Jun-29 15:13 125 12 gusting 18 30.0
2016-Jun-29 14:58 119 13 gusting 19 28.9
2016-Jun-29 14:43 108 13 gusting 19 28.9
2016-Jun-29 14:28 109 15 gusting 26 29.4
2016-Jun-29 14:13 120 14 gusting 22 29.4
2016-Jun-29 13:58 117 14 gusting 23 29.4
2016-Jun-29 13:43 105 11 gusting 23 29.4
2016-Jun-29 13:28 105 14 gusting 21 28.9
2016-Jun-29 13:13 120 14 gusting 24 28.9
2016-Jun-29 12:58 104 14 gusting 20 28.9
2016-Jun-29 12:43 098 12 gusting 19 28.9
2016-Jun-29 12:28 104 13 gusting 19 28.9
2016-Jun-29 12:13 127 13 gusting 20 28.3
2016-Jun-29 11:58 101 11 gusting 17 28.3
2016-Jun-29 11:43 110 11 gusting 19 28.3
2016-Jun-29 11:28 074 10 gusting 19 27.8
2016-Jun-29 11:13 103 13 gusting 18 27.8
2016-Jun-29 10:58 101 9 gusting 15 27.8
2016-Jun-29 10:43 108 10 gusting 16 27.2
2016-Jun-29 10:28 075 12 gusting 18 27.2
2016-Jun-29 10:13 090 11 gusting 19 27.2
2016-Jun-29 09:58 100 11 gusting 17 27.2
2016-Jun-29 09:43 090 9 gusting 16 27.2
2016-Jun-29 09:28 094 9 gusting 18 27.2
2016-Jun-29 09:13 088 11 gusting 22 27.2
2016-Jun-29 08:58 097 6 gusting 18 27.2
2016-Jun-29 08:43 103 9 gusting 17 27.2
2016-Jun-29 08:28 100 11 gusting 22 27.2
2016-Jun-29 08:13 114 10 gusting 16 27.2
2016-Jun-29 07:58 117 10 gusting 17 27.2
2016-Jun-29 07:43 079 6 gusting 14 27.2
2016-Jun-29 07:28 103 8 gusting 17 27.2
2016-Jun-29 07:13 133 10 gusting 19 27.2
2016-Jun-29 06:58 081 12 gusting 17 27.2
2016-Jun-29 06:43 098 10 gusting 15 27.8
2016-Jun-29 06:28 092 10 gusting 15 27.8
2016-Jun-29 06:13 094 10 gusting 15 27.8
2016-Jun-29 05:58 084 8 gusting 16 27.8
2016-Jun-29 05:43 077 11 gusting 19 27.8
2016-Jun-29 05:28 120 10 gusting 17 27.8
2016-Jun-29 05:13 105 12 gusting 19 27.8
2016-Jun-29 04:58 101 10 gusting 20 27.8
2016-Jun-29 04:42 108 6 gusting 19 27.8
2016-Jun-29 04:27 070 8 gusting 17 27.8
2016-Jun-29 04:12 094 10 gusting 19 27.8
2016-Jun-29 03:57 123 7 gusting 16 27.8
2016-Jun-29 03:42 096 12 gusting 17 27.8
2016-Jun-29 03:27 079 9 gusting 19 27.8
2016-Jun-29 03:15 117 9 gusting 19 27.8
2016-Jun-29 02:57 098 9 gusting 16 27.8
2016-Jun-29 02:42 101 11 gusting 19 27.8
2016-Jun-29 02:27 073 9 gusting 15 27.8
2016-Jun-29 02:12 105 11 gusting 18 27.8